Time;durP1;ratioP1;P1;durP2;ratioP2;P2;SDS_P1;SDS_P2;PMS_P1;PMS_P2;Temp;Humidity;BMP_temperature;BMP_pressure;BME280_temperature;BME280_humidity;BME280_pressure;Samples;Min_cycle;Max_cycle;Signal;HPM_P1;HPM_P2
2022/06/30 00:01:07;;;;;;;5.32;1.98;;;14.20;99.90;;;;;;4992801;28;20140;-77
2022/06/30 00:03:34;;;;;;;8.15;2.67;;;14.40;99.90;;;;;;4992842;28;20037;-77
2022/06/30 00:06:02;;;;;;;7.65;2.05;;;14.50;99.90;;;;;;4994034;28;20130;-77
2022/06/30 00:08:30;;;;;;;3.65;1.80;;;14.50;99.90;;;;;;4994386;28;20518;-77
2022/06/30 00:11:06;;;;;;;3.70;1.50;;;14.50;99.90;;;;;;4992775;28;20031;-77
2022/06/30 00:13:41;;;;;;;5.07;1.83;;;14.50;99.90;;;;;;4992393;28;20030;-77
2022/06/30 00:16:09;;;;;;;4.45;2.00;;;14.40;99.90;;;;;;4993827;28;20030;-77
2022/06/30 00:18:37;;;;;;;3.53;1.60;;;14.40;99.90;;;;;;4992551;28;20104;-77
2022/06/30 00:21:06;;;;;;;7.38;1.88;;;14.40;99.90;;;;;;4992509;28;20030;-77
2022/06/30 00:23:33;;;;;;;6.80;2.40;;;14.40;99.90;;;;;;4994178;28;20109;-77
2022/06/30 00:26:00;;;;;;;4.35;2.13;;;14.50;99.90;;;;;;4993230;28;20085;-77
2022/06/30 00:28:28;;;;;;;6.35;2.70;;;14.40;99.90;;;;;;4992269;28;20026;-77
2022/06/30 00:30:55;;;;;;;6.57;2.17;;;14.30;99.90;;;;;;4993780;28;20026;-77
2022/06/30 00:33:23;;;;;;;5.88;2.10;;;14.50;99.90;;;;;;4993825;28;20025;-77
2022/06/30 00:35:51;;;;;;;24.70;4.15;;;14.60;99.90;;;;;;4992402;28;20053;-78
2022/06/30 00:38:18;;;;;;;4.03;2.08;;;14.70;99.90;;;;;;4992237;28;20018;-77
2022/06/30 00:40:47;;;;;;;5.40;2.30;;;15.00;99.90;;;;;;4992320;28;20108;-77
2022/06/30 00:43:14;;;;;;;3.78;2.10;;;15.10;99.90;;;;;;4992377;28;20121;-77
2022/06/30 00:45:46;;;;;;;4.13;1.80;;;15.10;99.90;;;;;;4992394;28;20084;-77
2022/06/30 00:48:15;;;;;;;3.50;2.20;;;15.00;99.90;;;;;;4993855;28;20026;-78
2022/06/30 00:50:43;;;;;;;4.55;1.80;;;14.90;99.90;;;;;;4993977;28;20049;-77
2022/06/30 00:53:11;;;;;;;2.55;1.55;;;14.90;99.90;;;;;;4993491;28;20027;-76
2022/06/30 00:55:39;;;;;;;4.10;1.55;;;14.90;99.90;;;;;;4993952;28;20116;-77
2022/06/30 00:58:09;;;;;;;4.80;2.58;;;15.00;99.90;;;;;;4992395;28;20029;-78
2022/06/30 01:00:41;;;;;;;4.85;1.80;;;15.00;99.90;;;;;;4993300;28;20057;-76
2022/06/30 01:03:09;;;;;;;3.80;1.65;;;15.10;99.90;;;;;;4993934;28;20029;-76
2022/06/30 01:05:37;;;;;;;4.90;1.63;;;15.20;99.90;;;;;;4993618;28;20074;-75
2022/06/30 01:08:06;;;;;;;4.28;1.67;;;15.30;99.90;;;;;;4993383;28;20026;-75
2022/06/30 01:13:19;;;;;;;6.38;1.70;;;15.50;99.90;;;;;;4993465;28;20395;-77
2022/06/30 01:15:46;;;;;;;3.13;1.35;;;15.30;99.90;;;;;;4992018;28;20022;-76
2022/06/30 01:18:14;;;;;;;3.45;1.60;;;15.40;99.90;;;;;;4993478;28;20101;-77
2022/06/30 01:20:41;;;;;;;50.55;3.97;;;15.30;99.90;;;;;;4993405;28;20022;-76
2022/06/30 01:23:08;;;;;;;19.08;3.63;;;15.40;99.90;;;;;;4993409;28;20018;-76
2022/06/30 01:25:36;;;;;;;3.53;1.35;;;15.60;99.90;;;;;;4993127;28;20493;-76
2022/06/30 01:28:04;;;;;;;4.03;1.40;;;15.60;99.90;;;;;;4992003;28;20018;-76
2022/06/30 01:30:31;;;;;;;3.10;1.50;;;15.70;99.90;;;;;;4991814;28;20077;-76
2022/06/30 01:32:58;;;;;;;3.72;1.40;;;15.80;99.90;;;;;;4991988;28;20022;-76
2022/06/30 01:35:26;;;;;;;3.97;1.40;;;15.90;99.90;;;;;;4991783;28;20498;-76
2022/06/30 01:37:56;;;;;;;2.17;1.40;;;15.90;99.90;;;;;;4991899;28;20026;-77
2022/06/30 01:40:26;;;;;;;3.03;1.10;;;16.00;99.90;;;;;;4993251;28;20386;-78
2022/06/30 01:42:53;;;;;;;3.20;2.00;;;16.00;99.90;;;;;;4992445;28;20081;-77
2022/06/30 01:45:22;;;;;;;2.88;1.30;;;16.00;99.90;;;;;;4993138;28;20029;-76
2022/06/30 01:47:53;;;;;;;2.47;1.92;;;16.00;99.90;;;;;;4993197;28;20438;-77
2022/06/30 01:50:23;;;;;;;3.03;1.38;;;16.00;99.90;;;;;;4991895;28;20081;-77
2022/06/30 01:52:51;;;;;;;5.93;1.50;;;16.10;99.90;;;;;;4994233;28;20033;-77
2022/06/30 01:55:19;;;;;;;4.35;1.63;;;16.30;99.90;;;;;;4991895;28;20034;-78
2022/06/30 01:57:46;;;;;;;5.55;1.52;;;16.50;99.90;;;;;;4993754;28;20105;-77
2022/06/30 02:00:17;;;;;;;4.05;1.50;;;16.60;99.90;;;;;;4994889;28;20022;-77
2022/06/30 02:02:45;;;;;;;3.25;1.60;;;16.60;99.90;;;;;;4995323;28;20070;-77
2022/06/30 02:05:13;;;;;;;4.38;1.50;;;16.50;99.90;;;;;;4996562;28;20376;-77
2022/06/30 02:07:41;;;;;;;4.95;2.30;;;16.30;99.90;;;;;;4996549;28;20080;-77
2022/06/30 02:10:14;;;;;;;4.10;1.60;;;16.20;99.90;;;;;;4995046;28;20026;-78
2022/06/30 02:12:48;;;;;;;3.08;1.20;;;16.20;99.90;;;;;;4996744;28;20058;-78
2022/06/30 02:15:23;;;;;;;3.40;1.52;;;16.20;99.90;;;;;;4994791;28;20093;-76
2022/06/30 02:17:54;;;;;;;1.95;1.40;;;16.40;99.90;;;;;;4996506;28;20073;-78
2022/06/30 02:20:23;;;;;;;5.13;1.55;;;16.40;99.90;;;;;;4996150;28;20023;-77
2022/06/30 02:22:56;;;;;;;2.65;1.52;;;16.50;99.90;;;;;;4996172;28;20029;-76
2022/06/30 02:25:25;;;;;;;4.43;1.13;;;16.50;99.90;;;;;;4996084;28;20503;-77
2022/06/30 02:27:53;;;;;;;4.90;1.45;;;16.60;99.90;;;;;;4995972;28;20022;-77
2022/06/30 02:30:21;;;;;;;4.18;1.35;;;16.70;99.90;;;;;;4996266;28;20544;-75
2022/06/30 02:32:48;;;;;;;4.60;1.60;;;16.70;99.90;;;;;;4995860;28;20018;-77
2022/06/30 02:35:16;;;;;;;3.67;1.20;;;16.60;99.90;;;;;;4995935;28;20058;-75
2022/06/30 02:37:44;;;;;;;2.25;1.25;;;16.60;99.90;;;;;;4995805;28;20029;-77
2022/06/30 02:40:11;;;;;;;4.25;1.25;;;16.60;99.90;;;;;;4995862;28;20023;-79
2022/06/30 02:42:39;;;;;;;3.28;1.20;;;16.70;99.90;;;;;;4994346;28;20022;-76
2022/06/30 02:45:06;;;;;;;1.75;0.93;;;16.80;99.90;;;;;;4995873;28;20022;-76
2022/06/30 02:47:39;;;;;;;2.95;1.00;;;17.00;99.90;;;;;;4995832;28;20430;-76
2022/06/30 02:50:09;;;;;;;3.05;1.10;;;17.00;99.90;;;;;;4995937;28;20360;-77
2022/06/30 02:52:37;;;;;;;3.65;1.00;;;17.00;99.90;;;;;;4995863;28;20023;-78
2022/06/30 02:55:06;;;;;;;3.13;1.00;;;17.00;99.90;;;;;;4997748;28;20062;-76
2022/06/30 02:57:35;;;;;;;2.53;0.70;;;17.10;99.90;;;;;;4996026;28;20027;-76
2022/06/30 03:00:08;;;;;;;1.45;0.93;;;17.00;99.90;;;;;;4995190;28;20029;-76
2022/06/30 03:02:35;;;;;;;4.65;1.10;;;17.10;99.90;;;;;;4995076;28;20046;-76
2022/06/30 03:05:03;;;;;;;5.03;1.60;;;16.90;99.90;;;;;;4993895;28;20034;-76
2022/06/30 03:07:31;;;;;;;4.43;1.25;;;17.00;99.90;;;;;;4994080;28;20084;-76
2022/06/30 03:09:58;;;;;;;2.33;1.27;;;17.10;99.90;;;;;;4993301;28;20056;-75
2022/06/30 03:12:25;;;;;;;3.22;1.23;;;17.00;99.90;;;;;;4995196;28;20019;-75
2022/06/30 03:14:53;;;;;;;2.33;0.85;;;17.10;99.90;;;;;;4995386;28;20027;-74
2022/06/30 03:17:20;;;;;;;2.08;0.88;;;17.10;99.90;;;;;;4994854;28;20026;-75
2022/06/30 03:19:47;;;;;;;4.35;1.20;;;17.20;99.90;;;;;;4993683;28;20034;-74
2022/06/30 03:22:15;;;;;;;2.15;1.13;;;17.30;99.90;;;;;;4994836;28;20022;-75
2022/06/30 03:24:42;;;;;;;1.30;0.77;;;17.20;99.90;;;;;;4993472;28;20034;-75
2022/06/30 03:27:09;;;;;;;3.40;1.20;;;17.20;99.90;;;;;;4993442;28;20061;-74
2022/06/30 03:29:37;;;;;;;2.80;1.25;;;17.10;99.90;;;;;;4994752;28;20074;-74
2022/06/30 03:32:04;;;;;;;1.98;1.05;;;17.10;99.90;;;;;;4993702;28;20026;-75
2022/06/30 03:34:32;;;;;;;3.95;1.20;;;17.10;99.90;;;;;;4994591;28;20049;-75
2022/06/30 03:36:59;;;;;;;2.33;1.02;;;17.20;99.90;;;;;;4994965;28;20053;-75
2022/06/30 03:39:26;;;;;;;5.15;1.52;;;17.10;99.90;;;;;;4994491;28;20018;-75
2022/06/30 03:41:54;;;;;;;3.50;1.20;;;17.00;99.90;;;;;;4994779;28;20105;-74
2022/06/30 03:44:21;;;;;;;3.00;1.27;;;17.00;99.90;;;;;;4994484;28;20102;-75
2022/06/30 03:46:48;;;;;;;2.85;1.00;;;17.00;99.90;;;;;;4994474;28;20121;-75
2022/06/30 03:49:16;;;;;;;2.03;1.20;;;17.00;99.90;;;;;;4994415;28;20033;-75
2022/06/30 03:51:44;;;;;;;4.03;1.20;;;17.10;99.90;;;;;;4976936;28;20398;-75
2022/06/30 03:54:11;;;;;;;2.53;0.90;;;17.00;99.90;;;;;;4992833;28;20023;-75
2022/06/30 03:56:38;;;;;;;3.10;1.10;;;16.90;99.90;;;;;;4994387;28;20014;-75
2022/06/30 03:59:06;;;;;;;2.78;0.90;;;17.00;99.90;;;;;;4994211;28;20367;-75
2022/06/30 04:01:33;;;;;;;7.88;5.85;;;17.00;99.90;;;;;;4993875;28;20046;-76
2022/06/30 04:04:00;;;;;;;2.67;1.83;;;17.00;99.90;;;;;;4992732;28;20022;-75
2022/06/30 04:06:28;;;;;;;2.88;1.50;;;17.00;99.90;;;;;;4994305;28;20033;-75
2022/06/30 04:08:55;;;;;;;1.90;0.85;;;17.00;99.90;;;;;;4994025;28;20027;-74
2022/06/30 04:11:22;;;;;;;3.42;1.25;;;17.00;99.90;;;;;;4994067;28;20032;-74
2022/06/30 04:13:49;;;;;;;3.65;1.38;;;17.10;99.90;;;;;;4993856;28;20035;-74
2022/06/30 04:16:17;;;;;;;2.72;1.00;;;17.20;99.90;;;;;;4992715;28;20027;-75
2022/06/30 04:18:44;;;;;;;2.28;1.00;;;17.20;99.90;;;;;;4993938;28;20057;-75
2022/06/30 04:21:15;;;;;;;3.20;1.20;;;17.10;99.90;;;;;;4993205;28;20029;-75
2022/06/30 04:23:44;;;;;;;3.20;1.42;;;17.10;99.90;;;;;;4993860;28;20031;-74
2022/06/30 04:26:11;;;;;;;6.07;1.30;;;17.10;99.90;;;;;;4993810;28;20077;-74
2022/06/30 04:28:39;;;;;;;2.60;1.50;;;17.00;99.90;;;;;;4994204;28;20101;-75
2022/06/30 04:33:52;;;;;;;3.72;1.52;;;17.00;99.90;;;;;;4993638;28;20038;-74
2022/06/30 04:36:19;;;;;;;3.25;1.40;;;17.00;99.90;;;;;;4993844;28;20022;-75
2022/06/30 04:38:46;;;;;;;3.88;1.83;;;16.90;99.90;;;;;;4993662;28;20363;-75
2022/06/30 04:41:26;;;;;;;4.72;1.20;;;16.90;99.90;;;;;;4993684;28;20030;-75
2022/06/30 04:43:54;;;;;;;3.20;0.90;;;16.80;99.90;;;;;;4993660;28;20110;-74
2022/06/30 04:46:23;;;;;;;2.53;0.80;;;16.80;99.90;;;;;;4993560;28;20022;-75
2022/06/30 04:48:51;;;;;;;2.42;1.20;;;16.80;99.90;;;;;;4992225;28;20073;-74
2022/06/30 04:51:19;;;;;;;5.80;1.30;;;16.80;99.90;;;;;;4993452;28;20041;-74
2022/06/30 04:53:47;;;;;;;3.42;1.25;;;16.80;99.90;;;;;;4993472;28;20038;-74
2022/06/30 04:56:14;;;;;;;2.67;0.82;;;16.70;99.90;;;;;;4993461;28;20022;-75
2022/06/30 04:58:42;;;;;;;2.90;1.13;;;16.60;99.90;;;;;;4993553;28;20157;-75
2022/06/30 05:01:10;;;;;;;2.85;0.95;;;16.60;99.90;;;;;;4993082;28;20053;-76
2022/06/30 05:03:38;;;;;;;2.22;0.90;;;16.60;99.90;;;;;;4993474;28;20026;-74
2022/06/30 05:06:08;;;;;;;3.10;1.67;;;16.50;99.90;;;;;;4993159;28;20060;-75
2022/06/30 05:08:35;;;;;;;2.20;0.82;;;16.50;99.90;;;;;;4993358;28;20022;-75
2022/06/30 05:11:03;;;;;;;2.33;0.57;;;16.50;99.90;;;;;;4993257;28;20058;-75
2022/06/30 05:13:30;;;;;;;3.00;0.90;;;16.40;99.90;;;;;;4993285;28;20526;-74
2022/06/30 05:15:58;;;;;;;1.80;1.00;;;16.40;99.90;;;;;;4993210;28;20339;-75
2022/06/30 05:18:26;;;;;;;2.67;0.90;;;16.30;99.90;;;;;;4993242;28;20026;-75
2022/06/30 05:20:54;;;;;;;2.22;1.08;;;16.30;99.90;;;;;;4991704;28;20022;-76
2022/06/30 05:23:22;;;;;;;1.70;0.82;;;16.30;99.90;;;;;;4993076;28;20030;-76
2022/06/30 05:28:35;;;;;;;2.03;0.77;;;16.30;99.90;;;;;;4993330;28;20029;-75
2022/06/30 05:31:02;;;;;;;1.52;0.80;;;16.30;99.90;;;;;;4993139;28;20029;-75
2022/06/30 05:33:29;;;;;;;3.08;0.80;;;16.20;99.90;;;;;;4996305;28;20098;-75
2022/06/30 05:35:59;;;;;;;3.30;1.20;;;16.20;99.90;;;;;;4996785;28;20500;-75
2022/06/30 05:38:27;;;;;;;3.58;1.25;;;16.20;99.90;;;;;;4996720;28;20015;-74
2022/06/30 05:40:54;;;;;;;2.08;1.35;;;16.20;99.90;;;;;;4995274;28;20085;-74
2022/06/30 05:43:21;;;;;;;2.80;1.05;;;16.20;99.90;;;;;;4996634;28;20479;-74
2022/06/30 05:45:51;;;;;;;3.40;1.20;;;16.10;99.90;;;;;;4996672;28;20022;-74
2022/06/30 05:48:18;;;;;;;2.25;1.00;;;16.00;99.90;;;;;;4996944;28;20489;-75
2022/06/30 05:50:47;;;;;;;1.40;0.90;;;16.00;99.90;;;;;;4996496;28;20022;-75
2022/06/30 05:53:15;;;;;;;2.25;0.70;;;15.90;99.90;;;;;;4995374;28;20080;-74
2022/06/30 05:55:42;;;;;;;3.55;0.80;;;15.90;99.90;;;;;;4996559;28;20023;-76
2022/06/30 05:58:11;;;;;;;3.78;1.63;;;15.90;99.90;;;;;;4996804;28;20104;-75
2022/06/30 06:00:39;;;;;;;1.90;1.13;;;15.80;99.90;;;;;;4996200;28;20046;-75
2022/06/30 06:03:06;;;;;;;3.78;1.80;;;15.80;99.90;;;;;;4996397;28;20034;-76
2022/06/30 06:05:33;;;;;;;2.90;1.00;;;15.70;99.90;;;;;;4996323;28;20454;-75
2022/06/30 06:08:08;;;;;;;2.88;1.00;;;15.70;99.90;;;;;;4996319;28;20108;-75
2022/06/30 06:10:35;;;;;;;3.40;1.42;;;15.60;99.90;;;;;;4994870;28;20082;-75
2022/06/30 06:13:04;;;;;;;1.83;0.98;;;15.60;99.90;;;;;;4996148;28;20088;-75
2022/06/30 06:15:31;;;;;;;3.28;0.90;;;15.50;99.90;;;;;;4994758;28;20448;-75
2022/06/30 06:17:59;;;;;;;3.80;1.70;;;15.50;99.90;;;;;;4994720;28;20077;-75
2022/06/30 06:20:26;;;;;;;3.65;1.10;;;15.40;99.90;;;;;;4994759;28;20030;-75
2022/06/30 06:22:53;;;;;;;3.58;1.00;;;15.40;99.90;;;;;;4996062;28;20019;-76
2022/06/30 06:25:21;;;;;;;2.35;0.77;;;15.30;99.90;;;;;;4994572;28;20420;-76
2022/06/30 06:30:35;;;;;;;1.77;0.90;;;15.20;99.90;;;;;;4996029;28;20097;-75
2022/06/30 06:33:02;;;;;;;1.60;0.80;;;15.10;99.90;;;;;;4995943;28;20118;-76
2022/06/30 06:35:29;;;;;;;3.05;0.93;;;15.10;99.90;;;;;;4995810;28;20026;-75
2022/06/30 06:37:57;;;;;;;1.50;1.00;;;15.10;99.90;;;;;;4995794;28;20051;-74
2022/06/30 06:40:24;;;;;;;1.98;0.75;;;15.00;99.90;;;;;;4994559;28;20061;-74
2022/06/30 06:42:51;;;;;;;1.70;1.02;;;15.00;99.90;;;;;;4995526;28;20065;-69
2022/06/30 06:45:19;;;;;;;2.40;1.00;;;14.90;99.90;;;;;;4994991;28;20113;-72
2022/06/30 06:47:47;;;;;;;1.70;0.73;;;14.70;99.90;;;;;;4995487;28;20072;-75
2022/06/30 06:50:14;;;;;;;2.00;0.80;;;14.70;99.90;;;;;;4994024;28;20030;-75
2022/06/30 06:52:42;;;;;;;1.75;0.93;;;14.70;99.90;;;;;;4995631;28;20037;-76
2022/06/30 06:55:10;;;;;;;2.92;0.95;;;14.60;99.90;;;;;;4995521;28;20026;-75
2022/06/30 06:57:39;;;;;;;4.07;0.90;;;14.60;99.90;;;;;;4995482;28;20105;-74
2022/06/30 07:00:09;;;;;;;1.63;0.68;;;14.60;99.90;;;;;;4995391;28;20105;-74
2022/06/30 07:02:37;;;;;;;2.05;0.90;;;14.50;99.90;;;;;;4994124;28;20053;-74
2022/06/30 07:05:04;;;;;;;1.92;0.70;;;14.40;99.90;;;;;;4995196;28;20049;-75
2022/06/30 07:07:32;;;;;;;5.75;1.35;;;14.40;99.90;;;;;;4995255;28;20022;-75
2022/06/30 07:09:59;;;;;;;1.90;0.85;;;14.40;99.90;;;;;;4995025;28;20092;-72
2022/06/30 07:12:26;;;;;;;4.75;1.00;;;14.30;99.90;;;;;;4993685;28;20088;-71
2022/06/30 07:14:54;;;;;;;2.35;1.05;;;14.40;99.90;;;;;;4993658;28;20045;-74
2022/06/30 07:17:21;;;;;;;1.80;0.80;;;14.40;99.90;;;;;;4994936;28;20384;-74
2022/06/30 07:19:48;;;;;;;4.78;2.10;;;14.30;99.90;;;;;;4993618;28;20070;-78
2022/06/30 07:22:19;;;;;;;4.13;1.83;;;14.30;99.90;;;;;;4995052;28;20056;-74
2022/06/30 07:24:46;;;;;;;5.90;1.95;;;14.40;99.90;;;;;;4994958;28;20041;-76
2022/06/30 07:27:13;;;;;;;2.78;1.45;;;14.40;99.90;;;;;;4994994;28;20101;-76
2022/06/30 07:29:41;;;;;;;2.88;1.33;;;14.40;99.90;;;;;;4993490;28;20035;-75
2022/06/30 07:32:09;;;;;;;4.53;2.65;;;14.40;99.90;;;;;;4995169;28;20023;-75
2022/06/30 07:34:36;;;;;;;6.13;2.60;;;14.40;99.90;;;;;;4994698;28;20478;-75
2022/06/30 07:37:04;;;;;;;4.97;2.40;;;14.40;99.90;;;;;;4993407;28;20045;-75
2022/06/30 07:39:31;;;;;;;3.70;2.30;;;14.30;99.90;;;;;;4994634;28;20485;-75
2022/06/30 07:41:58;;;;;;;3.83;2.33;;;14.20;99.90;;;;;;4994525;28;20015;-75
2022/06/30 07:44:25;;;;;;;3.97;1.98;;;14.10;99.90;;;;;;4994457;28;20027;-75
2022/06/30 07:46:53;;;;;;;4.38;2.60;;;14.10;99.90;;;;;;4994467;28;20022;-75
2022/06/30 07:49:20;;;;;;;7.05;2.83;;;14.10;99.90;;;;;;4994531;28;20474;-75
2022/06/30 07:51:48;;;;;;;4.57;2.60;;;14.00;99.90;;;;;;4994418;28;20494;-75
2022/06/30 07:54:16;;;;;;;3.75;2.30;;;14.00;99.90;;;;;;4994505;28;20018;-75
2022/06/30 07:56:43;;;;;;;4.43;2.33;;;13.90;99.90;;;;;;4976851;28;20459;-75
2022/06/30 07:59:11;;;;;;;3.95;2.55;;;13.90;99.90;;;;;;4992931;28;20022;-75
2022/06/30 08:01:38;;;;;;;3.75;2.67;;;13.90;99.90;;;;;;4994164;28;20050;-75
2022/06/30 08:04:05;;;;;;;4.15;2.30;;;13.90;99.90;;;;;;4994218;28;20026;-75
2022/06/30 08:06:33;;;;;;;7.30;2.80;;;13.80;99.90;;;;;;4994140;28;20058;-76
2022/06/30 08:09:00;;;;;;;4.47;2.55;;;13.80;99.90;;;;;;4994086;28;20030;-75
2022/06/30 08:11:28;;;;;;;6.57;3.25;;;13.80;99.90;;;;;;4994083;28;20029;-74
2022/06/30 08:13:55;;;;;;;5.57;3.10;;;13.80;99.90;;;;;;4993892;28;20073;-75
2022/06/30 08:16:23;;;;;;;6.22;3.38;;;13.80;99.90;;;;;;4994068;28;20500;-74
2022/06/30 08:18:50;;;;;;;7.07;2.92;;;13.80;99.90;;;;;;4994326;28;20022;-75
2022/06/30 08:21:17;;;;;;;5.50;2.80;;;13.80;99.90;;;;;;4994047;28;20364;-77
2022/06/30 08:23:45;;;;;;;3.88;2.60;;;13.80;99.90;;;;;;4994032;28;20030;-77
2022/06/30 08:26:12;;;;;;;6.15;3.38;;;13.70;99.90;;;;;;4994989;28;20424;-77
2022/06/30 08:28:39;;;;;;;5.30;2.97;;;13.60;99.90;;;;;;4994855;28;20022;-77
2022/06/30 08:31:07;;;;;;;4.80;3.00;;;13.60;99.90;;;;;;4994390;28;20071;-76
2022/06/30 08:33:34;;;;;;;8.70;3.90;;;13.60;99.90;;;;;;4992302;28;20027;-76
2022/06/30 08:36:01;;;;;;;7.20;4.57;;;13.60;99.90;;;;;;4993763;28;20033;-77
2022/06/30 08:38:30;;;;;;;5.70;4.20;;;13.60;99.90;;;;;;4993796;28;20102;-76
2022/06/30 08:43:45;;;;;;;7.07;3.83;;;13.60;99.90;;;;;;4994077;28;20080;-77
2022/06/30 08:46:14;;;;;;;6.25;3.92;;;13.60;99.90;;;;;;4993716;28;20077;-76
2022/06/30 08:48:41;;;;;;;6.72;3.80;;;13.60;99.90;;;;;;4993595;28;20026;-76
2022/06/30 08:51:10;;;;;;;6.55;3.45;;;13.60;99.90;;;;;;4993535;28;20022;-77
2022/06/30 08:53:42;;;;;;;5.18;3.25;;;13.50;99.90;;;;;;4993313;28;20026;-77
2022/06/30 08:56:10;;;;;;;6.50;3.53;;;13.50;99.90;;;;;;4993640;28;20022;-77
2022/06/30 08:58:40;;;;;;;4.75;2.90;;;13.50;99.90;;;;;;4993601;28;20050;-76
2022/06/30 09:01:07;;;;;;;3.42;2.35;;;13.70;99.90;;;;;;4991861;28;20509;-76
2022/06/30 09:03:36;;;;;;;4.40;2.38;;;13.60;99.90;;;;;;4993485;28;20026;-76
2022/06/30 09:06:07;;;;;;;2.58;2.10;;;13.60;99.90;;;;;;4993610;28;20024;-77
2022/06/30 09:08:34;;;;;;;3.78;2.20;;;13.70;99.90;;;;;;4995861;28;20066;-76
2022/06/30 09:11:02;;;;;;;3.50;2.40;;;13.70;99.90;;;;;;4997634;28;20371;-76
2022/06/30 09:13:42;;;;;;;6.65;3.05;;;13.70;99.90;;;;;;4997553;28;20014;-76
2022/06/30 09:16:10;;;;;;;3.40;2.72;;;13.70;99.90;;;;;;4996099;28;20049;-76
2022/06/30 09:18:38;;;;;;;4.72;3.50;;;13.50;99.90;;;;;;4997283;28;20109;-75
2022/06/30 09:21:17;;;;;;;3.72;2.90;;;13.50;99.90;;;;;;4995839;28;20018;-75
2022/06/30 09:23:47;;;;;;;5.72;3.47;;;13.50;99.90;;;;;;4997328;28;20157;-75
2022/06/30 09:26:22;;;;;;;3.35;2.17;;;13.50;99.90;;;;;;4997260;28;20058;-74
2022/06/30 09:28:54;;;;;;;3.90;2.33;;;13.50;99.90;;;;;;4997689;28;20516;-74
2022/06/30 09:31:42;;;;;;;3.55;2.17;;;13.50;99.90;;;;;;4997159;28;20081;-75
2022/06/30 09:34:21;;;;;;;7.38;3.25;;;13.60;99.90;;;;;;4995805;28;20500;-76
2022/06/30 09:36:52;;;;;;;3.75;2.55;;;13.50;99.90;;;;;;4996941;28;20467;-75
2022/06/30 09:39:22;;;;;;;5.80;2.50;;;13.50;99.90;;;;;;4997320;28;20410;-76
2022/06/30 09:41:52;;;;;;;5.30;2.75;;;13.40;99.90;;;;;;4997025;28;20034;-74
2022/06/30 09:44:24;;;;;;;4.35;2.42;;;13.40;99.90;;;;;;4997119;28;20038;-76
2022/06/30 09:47:11;;;;;;;4.03;2.35;;;13.40;99.90;;;;;;4995467;28;20038;-76
2022/06/30 09:49:48;;;;;;;4.65;2.80;;;13.30;99.90;;;;;;4995533;28;20544;-75
2022/06/30 09:52:22;;;;;;;4.88;2.45;;;13.30;99.90;;;;;;4995509;28;20033;-76
2022/06/30 09:55:08;;;;;;;5.05;2.85;;;13.30;99.90;;;;;;4996656;28;20026;-77
2022/06/30 09:57:44;;;;;;;7.07;3.25;;;13.30;99.90;;;;;;4996753;28;20026;-77
2022/06/30 10:00:13;;;;;;;7.38;3.45;;;13.20;99.90;;;;;;4996405;28;20394;-74
2022/06/30 10:02:46;;;;;;;4.70;2.97;;;13.20;99.90;;;;;;4996580;28;20049;-76
2022/06/30 10:05:15;;;;;;;6.70;4.30;;;13.20;99.90;;;;;;4996391;28;20023;-76
2022/06/30 10:07:43;;;;;;;6.93;4.30;;;13.20;99.90;;;;;;4995094;28;20058;-75
2022/06/30 10:10:13;;;;;;;8.63;4.82;;;13.20;99.90;;;;;;4996304;28;20026;-76
2022/06/30 10:12:45;;;;;;;6.30;4.43;;;13.10;99.90;;;;;;4996694;28;20479;-76
2022/06/30 10:15:12;;;;;;;;;;;13.10;99.90;;;;;;4995223;28;20041;-75
2022/06/30 10:17:59;;;;;;;8.85;4.70;;;13.10;99.90;;;;;;4996002;28;19917;-76
2022/06/30 10:20:29;;;;;;;9.23;5.28;;;13.10;99.90;;;;;;4995744;28;20022;-74
2022/06/30 10:22:57;;;;;;;6.57;3.80;;;13.10;99.90;;;;;;4996322;28;20102;-75
2022/06/30 10:25:24;;;;;;;5.03;2.95;;;13.10;99.90;;;;;;4996086;28;20426;-74
2022/06/30 10:27:52;;;;;;;7.93;4.13;;;13.10;99.90;;;;;;4996455;28;20030;-75
2022/06/30 10:30:23;;;;;;;7.30;4.78;;;13.10;99.90;;;;;;4995959;28;20023;-75
2022/06/30 10:32:59;;;;;;;7.00;4.80;;;13.10;99.90;;;;;;4994693;28;20022;-76
2022/06/30 10:35:35;;;;;;;6.68;4.28;;;13.10;99.90;;;;;;4995927;28;20023;-75
2022/06/30 10:38:31;;;;;;;7.40;4.90;;;13.10;99.90;;;;;;4994502;28;20113;-75
2022/06/30 10:41:12;;;;;;;8.20;4.00;;;13.10;99.90;;;;;;4988613;28;20093;-75
2022/06/30 10:44:01;;;;;;;6.60;3.63;;;13.20;99.90;;;;;;4995823;28;20070;-76
2022/06/30 10:46:28;;;;;;;6.07;3.53;;;13.20;99.90;;;;;;4996213;28;20029;-75
2022/06/30 10:48:55;;;;;;;8.05;5.35;;;13.20;99.90;;;;;;4995472;28;20368;-75
2022/06/30 10:51:24;;;;;;;8.15;4.72;;;13.20;99.90;;;;;;4994034;28;20022;-76
2022/06/30 10:53:56;;;;;;;9.60;5.80;;;13.20;99.90;;;;;;4994063;28;20053;-75
2022/06/30 10:56:45;;;;;;;11.90;8.13;;;13.20;99.90;;;;;;4994143;28;20427;-76
2022/06/30 10:59:13;;;;;;;11.00;7.35;;;13.10;99.90;;;;;;4993948;28;20038;-75
2022/06/30 11:01:59;;;;;;;9.85;6.68;;;13.10;99.90;;;;;;4995146;28;20050;-75
2022/06/30 11:04:27;;;;;;;7.90;5.07;;;13.10;99.90;;;;;;4995311;28;20034;-76
2022/06/30 11:07:07;;;;;;;8.95;5.15;;;13.10;99.90;;;;;;4995215;28;20105;-75
2022/06/30 11:09:57;;;;;;;;;;;13.10;99.90;;;;;;4994249;28;20038;-76
2022/06/30 11:12:37;;;;;;;9.25;3.35;;;13.10;99.90;;;;;;4987345;28;19992;-75
2022/06/30 11:15:04;;;;;;;4.80;3.25;;;13.10;99.90;;;;;;4993646;28;20034;-76
2022/06/30 11:17:37;;;;;;;4.50;2.70;;;13.10;99.90;;;;;;4993645;28;20092;-74
2022/06/30 11:20:12;;;;;;;4.40;2.50;;;13.20;99.90;;;;;;4993739;28;20034;-74
2022/06/30 11:22:40;;;;;;;3.65;2.58;;;13.20;99.90;;;;;;4995082;28;20025;-74
2022/06/30 11:28:13;;;;;;;6.20;2.55;;;13.30;99.90;;;;;;4995276;28;20033;-74
2022/06/30 11:30:42;;;;;;;3.45;1.90;;;13.30;99.90;;;;;;4994515;28;20034;-73
2022/06/30 11:33:10;;;;;;;4.22;2.45;;;13.30;99.90;;;;;;4995097;28;20050;-74
2022/06/30 11:35:37;;;;;;;5.28;2.50;;;13.30;99.90;;;;;;4993313;28;20113;-73
2022/06/30 11:38:06;;;;;;;3.95;2.58;;;13.30;99.90;;;;;;4994686;28;20109;-74
2022/06/30 11:40:36;;;;;;;7.22;3.95;;;13.20;99.90;;;;;;4994640;28;20030;-73
2022/06/30 11:43:20;;;;;;;7.05;2.72;;;13.20;99.90;;;;;;4994704;28;20019;-72
2022/06/30 11:45:47;;;;;;;4.78;2.38;;;13.20;99.90;;;;;;4993125;28;20375;-73
2022/06/30 11:48:18;;;;;;;5.68;2.55;;;13.20;99.90;;;;;;4994439;28;20033;-74
2022/06/30 11:50:46;;;;;;;3.92;2.20;;;13.20;99.90;;;;;;4994405;28;20048;-74
2022/06/30 11:53:14;;;;;;;4.22;2.40;;;13.20;99.90;;;;;;4994277;28;20400;-74
2022/06/30 11:55:42;;;;;;;5.03;2.05;;;13.20;99.90;;;;;;4992883;28;20026;-74
2022/06/30 11:58:10;;;;;;;4.22;2.20;;;13.20;99.90;;;;;;4994330;28;20101;-74
2022/06/30 12:00:37;;;;;;;2.80;2.00;;;13.20;99.90;;;;;;4992627;28;20042;-74
2022/06/30 12:03:11;;;;;;;6.82;2.30;;;13.10;99.90;;;;;;4994194;28;20057;-74
2022/06/30 12:05:39;;;;;;;4.80;1.80;;;13.10;99.90;;;;;;4994305;28;20497;-74
2022/06/30 12:08:06;;;;;;;4.07;2.22;;;13.00;99.90;;;;;;4994091;28;20026;-74
2022/06/30 12:10:37;;;;;;;2.17;1.67;;;13.00;99.90;;;;;;4993989;28;20029;-74
2022/06/30 12:13:04;;;;;;;3.53;2.08;;;13.00;99.90;;;;;;4994597;28;20026;-74
2022/06/30 12:15:32;;;;;;;3.63;1.80;;;13.00;99.90;;;;;;4993914;28;20076;-74
2022/06/30 12:18:03;;;;;;;3.38;2.33;;;13.00;99.90;;;;;;4993942;28;20467;-75
2022/06/30 12:20:31;;;;;;;3.15;2.00;;;13.10;99.90;;;;;;4992582;28;20023;-75
2022/06/30 12:23:01;;;;;;;3.50;1.88;;;13.00;99.90;;;;;;4993818;28;20080;-75
2022/06/30 12:25:29;;;;;;;3.85;1.92;;;13.10;99.90;;;;;;4993862;28;20049;-76
2022/06/30 12:27:58;;;;;;;4.38;2.28;;;13.10;99.90;;;;;;4992477;28;20026;-75
2022/06/30 12:30:38;;;;;;;6.32;1.92;;;13.10;99.90;;;;;;4993783;28;20026;-75
2022/06/30 12:33:09;;;;;;;5.22;2.40;;;13.00;99.90;;;;;;4992341;28;20117;-76
2022/06/30 12:35:38;;;;;;;4.15;2.00;;;13.00;99.90;;;;;;4993531;28;20034;-75
2022/06/30 12:38:20;;;;;;;4.47;2.50;;;13.00;99.90;;;;;;4992331;28;20117;-75
2022/06/30 12:40:49;;;;;;;3.50;2.22;;;13.00;99.90;;;;;;4993603;28;20030;-76
2022/06/30 12:43:20;;;;;;;6.00;2.38;;;12.90;99.90;;;;;;4993214;28;20106;-75
2022/06/30 12:45:55;;;;;;;3.55;2.00;;;12.90;99.90;;;;;;4992204;28;20046;-75
2022/06/30 12:48:44;;;;;;;4.97;2.03;;;12.80;99.90;;;;;;4993611;28;20027;-75
2022/06/30 12:51:17;;;;;;;5.88;2.30;;;12.80;99.90;;;;;;4993503;28;20030;-75
2022/06/30 12:53:46;;;;;;;3.85;2.10;;;12.80;99.90;;;;;;4993517;28;20031;-75
2022/06/30 12:56:21;;;;;;;4.55;2.50;;;12.70;99.90;;;;;;4993530;28;20101;-75
2022/06/30 12:58:52;;;;;;;5.03;2.10;;;12.80;99.90;;;;;;4993608;28;20015;-76
2022/06/30 13:01:24;;;;;;;4.40;2.80;;;12.70;99.90;;;;;;4993429;28;20093;-76
2022/06/30 13:04:02;;;;;;;4.38;1.67;;;12.70;99.90;;;;;;4992091;28;20039;-76
2022/06/30 13:06:35;;;;;;;3.50;1.88;;;12.70;99.90;;;;;;4992088;28;20026;-75
2022/06/30 13:09:06;;;;;;;3.33;2.28;;;12.70;99.90;;;;;;4993693;28;20063;-76
2022/06/30 13:11:33;;;;;;;;;;;12.70;99.90;;;;;;4993780;28;20077;-75
2022/06/30 13:14:02;;;;;;;6.82;2.47;;;12.60;99.90;;;;;;4991815;28;19964;-75
2022/06/30 13:16:33;;;;;;;5.55;2.70;;;12.60;99.90;;;;;;4993340;28;20026;-75